createdAt,value
2023-02-13T00:00:26.086Z,101819.78
2023-02-13T00:02:54.008Z,101822.63
2023-02-13T00:05:21.949Z,101815.72
2023-02-13T00:07:49.899Z,101819.38
2023-02-13T00:10:18.281Z,101821.25
2023-02-13T00:12:46.227Z,101828.34
2023-02-13T00:15:14.193Z,101836.28
2023-02-13T00:17:43.564Z,101831.84
2023-02-13T00:20:11.964Z,101841.56
2023-02-13T00:22:39.947Z,101841.56
2023-02-13T00:25:08.814Z,101842.56
2023-02-13T00:27:36.907Z,101839.97
2023-02-13T00:30:05.069Z,101855.09
2023-02-13T00:32:33.020Z,101848.31
2023-02-13T00:35:02.303Z,101850.97
2023-02-13T00:37:30.298Z,101850.34
2023-02-13T00:39:58.226Z,101851.22
2023-02-13T00:42:26.679Z,101846.94
2023-02-13T00:44:54.657Z,101854.03
2023-02-13T00:47:22.829Z,101847.03
2023-02-13T00:49:50.776Z,101855.97
2023-02-13T00:52:20.102Z,101863.09
2023-02-13T00:54:48.387Z,101859.63
2023-02-13T00:57:16.338Z,101860.31
2023-02-13T00:59:44.326Z,101867.47
2023-02-13T01:02:12.251Z,101859.19
2023-02-13T01:04:40.274Z,101856.41
2023-02-13T01:07:08.240Z,101858.34
2023-02-13T01:09:37.586Z,101861.19
2023-02-13T01:12:05.672Z,101864.75
2023-02-13T01:14:33.620Z,101854.38
2023-02-13T01:17:01.547Z,101857.97
2023-02-13T01:19:29.490Z,101852.72
2023-02-13T01:21:57.478Z,101851.88
2023-02-13T01:24:25.436Z,101848.41
2023-02-13T01:26:54.716Z,101850.22
2023-02-13T01:29:22.654Z,101855.63
2023-02-13T01:31:50.829Z,101856.63
2023-02-13T01:34:18.832Z,101862.88
2023-02-13T01:36:46.731Z,101866.50
2023-02-13T01:39:14.652Z,101863.91
2023-02-13T01:41:42.614Z,101866.59
2023-02-13T01:44:43.808Z,101871.91
2023-02-13T01:47:14.107Z,101868.53
2023-02-13T01:49:42.045Z,101880.75
2023-02-13T01:52:10.019Z,101876.47
2023-02-13T01:54:37.959Z,101878.13
2023-02-13T01:57:07.155Z,101878.03
2023-02-13T01:59:36.160Z,101875.19
2023-02-13T02:02:04.207Z,101876.81
2023-02-13T02:04:34.304Z,101875.09
2023-02-13T02:07:04.153Z,101876.03
2023-02-13T02:09:33.983Z,101865.75
2023-02-13T02:12:02.937Z,101864.16
2023-02-13T02:14:30.900Z,101863.34
2023-02-13T02:16:58.835Z,101866.09
2023-02-13T02:19:31.467Z,101858.47
2023-02-13T02:22:25.498Z,101863.84
2023-02-13T02:25:20.506Z,101844.00
2023-02-13T02:28:20.156Z,101863.72
2023-02-13T02:31:03.308Z,101862.88
2023-02-13T02:33:35.931Z,101837.75
2023-02-13T02:36:14.078Z,101856.69
2023-02-13T02:38:48.755Z,101849.72
2023-02-13T02:41:38.639Z,101829.16
2023-02-13T02:44:12.687Z,101855.81
2023-02-13T02:47:01.896Z,101854.91
2023-02-13T02:49:48.861Z,101854.03
2023-02-13T02:52:19.003Z,101865.97
2023-02-13T02:55:05.252Z,101869.91
2023-02-13T02:57:47.878Z,101865.75
2023-02-13T03:00:33.479Z,101865.91
2023-02-13T03:03:18.603Z,101871.38
2023-02-13T03:06:05.123Z,101871.75
2023-02-13T03:08:50.432Z,101866.13
2023-02-13T03:11:35.632Z,101854.31
2023-02-13T03:14:03.684Z,101843.41
2023-02-13T03:16:48.935Z,101841.53
2023-02-13T03:19:36.777Z,101824.66
2023-02-13T03:22:19.690Z,101830.94
2023-02-13T03:24:51.049Z,101830.53
2023-02-13T03:27:45.370Z,101820.31
2023-02-13T03:30:19.217Z,101833.69
2023-02-13T03:32:48.913Z,101833.94
2023-02-13T03:35:47.479Z,101820.28
2023-02-13T03:38:19.529Z,101821.53
2023-02-13T03:41:03.596Z,101821.03
2023-02-13T03:43:32.858Z,101825.59
2023-02-13T03:46:02.546Z,101823.28
2023-02-13T03:48:49.235Z,101822.25
2023-02-13T03:51:19.810Z,101831.09
2023-02-13T03:53:50.595Z,101831.78
2023-02-13T03:56:36.593Z,101841.41
2023-02-13T03:59:17.295Z,101834.31
2023-02-13T04:01:56.236Z,101829.09
2023-02-13T04:04:26.866Z,101805.81
2023-02-13T04:06:57.418Z,101836.25
2023-02-13T04:09:27.392Z,101833.75
2023-02-13T04:11:58.528Z,101839.13
2023-02-13T04:14:27.695Z,101842.91
2023-02-13T04:16:58.164Z,101843.97
2023-02-13T04:19:26.427Z,101848.81
2023-02-13T04:21:57.031Z,101845.41
2023-02-13T04:24:26.391Z,101843.66
2023-02-13T04:26:54.354Z,101843.28
2023-02-13T04:29:22.522Z,101838.97
2023-02-13T04:31:50.597Z,101846.09
2023-02-13T04:34:18.596Z,101851.59
2023-02-13T04:36:46.569Z,101846.41
2023-02-13T04:39:14.553Z,101852.50
2023-02-13T04:41:44.238Z,101851.47
2023-02-13T04:44:12.197Z,101849.72
2023-02-13T04:46:40.138Z,101847.91
2023-02-13T04:49:08.073Z,101849.69
2023-02-13T04:51:36.000Z,101854.13
2023-02-13T04:54:03.938Z,101855.13
2023-02-13T04:56:31.880Z,101856.03
2023-02-13T04:59:01.220Z,101859.56
2023-02-13T05:01:29.279Z,101852.53
2023-02-13T05:03:57.278Z,101851.75
2023-02-13T05:06:25.272Z,101853.69
2023-02-13T05:08:53.226Z,101850.31
2023-02-13T05:11:21.188Z,101852.97
2023-02-13T05:13:49.156Z,101860.00
2023-02-13T05:16:18.492Z,101859.13
2023-02-13T05:18:46.485Z,101855.72
2023-02-13T05:21:31.707Z,101855.88
2023-02-13T05:23:59.651Z,101852.47
2023-02-13T05:26:27.666Z,101854.16
2023-02-13T05:29:12.754Z,101855.03
2023-02-13T05:31:42.252Z,101855.59
2023-02-13T05:34:10.353Z,101856.31
2023-02-13T05:36:38.318Z,101858.66
2023-02-13T05:39:06.882Z,101868.81
2023-02-13T05:41:34.835Z,101882.41
2023-02-13T05:44:02.775Z,101886.38
2023-02-13T05:46:30.867Z,101885.16
2023-02-13T05:49:00.264Z,101883.91
2023-02-13T05:51:28.175Z,101879.97
2023-02-13T05:53:56.124Z,101886.47
2023-02-13T05:56:24.042Z,101892.06
2023-02-13T05:58:52.793Z,101887.94
2023-02-13T06:01:20.754Z,101885.66
2023-02-13T06:03:48.784Z,101884.09
2023-02-13T06:06:18.179Z,101891.28
2023-02-13T06:08:46.103Z,101868.59
2023-02-13T06:11:14.029Z,101888.47
2023-02-13T06:13:41.994Z,101891.28
2023-02-13T06:16:10.197Z,101896.53
2023-02-13T06:18:38.200Z,101881.75
2023-02-13T06:21:06.622Z,101893.63
2023-02-13T06:23:36.016Z,101893.47
2023-02-13T06:26:05.047Z,101897.81
2023-02-13T06:28:32.922Z,101898.00
2023-02-13T06:31:01.537Z,101887.72
2023-02-13T06:33:29.652Z,101896.22
2023-02-13T06:35:57.673Z,101893.69
2023-02-13T06:38:25.657Z,101899.56
2023-02-13T06:40:54.936Z,101897.16
2023-02-13T06:43:22.920Z,101895.28
2023-02-13T06:45:51.912Z,101892.81
2023-02-13T06:48:19.859Z,101904.84
2023-02-13T06:50:47.781Z,101905.78
2023-02-13T06:53:15.753Z,101895.75
2023-02-13T06:55:43.868Z,101907.16
2023-02-13T06:58:13.176Z,101905.03
2023-02-13T07:00:41.195Z,101903.72
2023-02-13T07:03:10.004Z,101909.19
2023-02-13T07:05:40.757Z,101899.38
2023-02-13T07:08:08.754Z,101902.31
2023-02-13T09:12:41.429Z,101828.06
2023-02-13T09:15:10.288Z,101824.38
2023-02-13T09:17:38.266Z,101831.69
2023-02-13T09:20:07.268Z,101837.81
2023-02-13T09:22:35.263Z,101835.38
2023-02-13T09:25:04.395Z,101841.84
2023-02-13T09:27:32.442Z,101837.75
2023-02-13T09:30:02.142Z,101830.13
2023-02-13T09:32:30.295Z,101828.00
2023-02-13T09:34:58.474Z,101815.69
2023-02-13T09:37:27.104Z,101819.91
2023-02-13T09:39:55.064Z,101815.81
2023-02-13T09:42:25.376Z,101808.25
2023-02-13T09:44:53.804Z,101796.06
2023-02-13T09:47:28.373Z,101802.56
2023-02-13T09:49:58.257Z,101802.09
2023-02-13T09:52:26.475Z,101801.03
2023-02-13T09:54:54.385Z,101792.50
2023-02-13T09:57:27.185Z,101788.47
2023-02-13T09:59:59.536Z,101790.34
2023-02-13T10:02:39.603Z,101786.41
2023-02-13T10:05:12.512Z,101777.28
2023-02-13T10:07:42.310Z,101787.69
2023-02-13T10:10:14.878Z,101778.00
2023-02-13T10:12:55.892Z,101778.22
2023-02-13T10:15:27.207Z,101769.78
2023-02-13T10:17:59.042Z,101767.94
2023-02-13T10:20:30.113Z,101767.03
2023-02-13T10:22:59.254Z,101757.56
2023-02-13T10:25:28.532Z,101758.47
2023-02-13T10:27:57.212Z,101761.97
2023-02-13T10:30:26.454Z,101750.59
2023-02-13T10:33:13.780Z,101738.44
2023-02-13T10:35:41.721Z,101730.34
2023-02-13T10:38:17.339Z,101734.16
2023-02-13T10:40:52.778Z,101732.50
2023-02-13T10:43:21.735Z,101724.25
2023-02-13T10:46:05.150Z,101733.63
2023-02-13T10:48:48.890Z,101716.81
2023-02-13T10:51:19.932Z,101720.16
2023-02-13T10:53:54.450Z,101716.25
2023-02-13T10:56:26.116Z,101713.53
2023-02-13T10:59:08.646Z,101698.31
2023-02-13T11:01:40.450Z,101708.22
2023-02-13T11:04:11.616Z,101695.00
2023-02-13T11:06:42.744Z,101689.59
2023-02-13T11:09:13.389Z,101700.25
2023-02-13T11:11:42.514Z,101692.47
2023-02-13T11:14:12.573Z,101688.47
2023-02-13T11:17:01.951Z,101687.22
2023-02-13T11:19:35.128Z,101687.94
2023-02-13T11:22:04.969Z,101678.81
2023-02-13T11:24:33.008Z,101674.88
2023-02-13T11:27:02.535Z,101676.56
2023-02-13T11:29:31.047Z,101676.22
2023-02-13T11:32:04.184Z,101675.50
2023-02-13T11:34:34.181Z,101672.81
2023-02-13T11:37:21.872Z,101674.16
2023-02-13T11:39:51.533Z,101662.75
2023-02-13T11:42:26.083Z,101661.97
2023-02-13T11:44:55.048Z,101660.91
2023-02-13T11:47:41.840Z,101636.72
2023-02-13T11:50:23.390Z,101649.94
2023-02-13T11:52:59.055Z,101650.78
2023-02-13T11:55:32.406Z,101642.00
2023-02-13T11:58:01.476Z,101641.69
2023-02-13T12:00:33.860Z,101637.47
2023-02-13T12:03:01.866Z,101634.94
2023-02-13T12:05:31.263Z,101638.66
2023-02-13T12:08:01.626Z,101627.78
2023-02-13T12:10:29.903Z,101617.84
2023-02-13T12:12:58.998Z,101615.97
2023-02-13T12:15:27.966Z,101605.13
2023-02-13T12:18:05.197Z,101611.59
2023-02-13T12:20:41.381Z,101613.94
2023-02-13T12:23:13.603Z,101602.06
2023-02-13T12:25:49.496Z,101608.00
2023-02-13T12:28:18.354Z,101597.78
2023-02-13T12:31:22.498Z,101594.22
2023-02-13T12:34:41.084Z,101589.84
2023-02-13T12:37:17.722Z,101585.44
2023-02-13T12:39:50.077Z,101577.84
2023-02-13T12:42:24.348Z,101581.31
2023-02-13T12:45:00.950Z,101578.38
2023-02-13T12:47:30.332Z,101580.06
2023-02-13T12:50:18.690Z,101591.59
2023-02-13T12:52:56.611Z,101577.34
2023-02-13T12:55:31.340Z,101589.47
2023-02-13T12:58:06.622Z,101586.06
2023-02-13T13:00:41.295Z,101578.91
2023-02-13T13:03:39.125Z,101581.59
2023-02-13T13:06:15.294Z,101583.06
2023-02-13T13:08:56.184Z,101590.66
2023-02-13T13:11:31.147Z,101584.31
2023-02-13T13:14:02.208Z,101582.34
2023-02-13T13:16:34.601Z,101571.69
2023-02-13T13:19:07.453Z,101579.84
2023-02-13T13:21:40.000Z,101573.88
2023-02-13T13:24:14.896Z,101579.84
2023-02-13T13:26:43.369Z,101571.19
2023-02-13T13:29:13.129Z,101571.56
2023-02-13T13:31:41.154Z,101571.81
2023-02-13T13:34:14.063Z,101570.72
2023-02-13T13:36:44.971Z,101564.63
2023-02-13T13:39:21.753Z,101565.84
2023-02-13T13:41:52.230Z,101552.44
2023-02-13T13:44:39.397Z,101559.53
2023-02-13T13:47:10.653Z,101551.50
2023-02-13T13:49:41.694Z,101558.34
2023-02-13T13:52:20.987Z,101555.91
2023-02-13T13:54:51.716Z,101559.56
2023-02-13T13:57:19.700Z,101547.63
2023-02-13T14:00:29.488Z,101548.34
2023-02-13T14:03:25.893Z,101546.69
2023-02-13T14:06:07.786Z,101539.84
2023-02-13T14:09:09.724Z,101552.50
2023-02-13T14:11:40.795Z,101530.44
2023-02-13T14:14:52.620Z,101533.72
2023-02-13T14:17:54.599Z,101527.63
2023-02-13T14:20:29.868Z,101528.97
2023-02-13T14:22:57.859Z,101530.66
2023-02-13T14:25:26.906Z,101524.72
2023-02-13T14:28:00.382Z,101517.88
2023-02-13T14:30:30.368Z,101509.84
2023-02-13T14:32:58.379Z,101504.75
2023-02-13T14:35:27.771Z,101504.47
2023-02-13T14:37:57.619Z,101484.72
2023-02-13T14:40:44.384Z,101503.25
2023-02-13T14:43:31.127Z,101488.13
2023-02-13T14:46:00.404Z,101497.16
2023-02-13T15:04:18.412Z,101482.84
2023-02-13T15:06:46.485Z,101483.94
2023-02-13T15:09:21.886Z,101484.56
2023-02-13T15:11:49.830Z,101489.91
2023-02-13T15:14:21.992Z,101488.91
2023-02-13T15:16:52.494Z,101488.19
2023-02-13T15:19:22.335Z,101486.25
2023-02-13T15:21:52.873Z,101504.22
2023-02-13T15:24:22.926Z,101505.50
2023-02-13T15:26:52.514Z,101505.13
2023-02-13T15:29:29.350Z,101498.06
2023-02-13T15:32:01.030Z,101503.00
2023-02-13T15:34:32.250Z,101504.53
2023-02-13T15:37:00.167Z,101507.09
2023-02-13T15:39:28.805Z,101504.72
2023-02-13T15:41:58.288Z,101498.22
2023-02-13T15:44:28.560Z,101500.59
2023-02-13T15:46:57.638Z,101503.34
2023-02-13T15:49:26.809Z,101504.09
2023-02-13T15:52:04.990Z,101512.84
2023-02-13T15:54:34.318Z,101497.66
2023-02-13T15:57:03.691Z,101475.88
2023-02-13T15:59:33.878Z,101491.00
2023-02-13T16:02:01.887Z,101495.38
2023-02-13T16:04:30.350Z,101493.53
2023-02-13T16:06:58.399Z,101488.16
2023-02-13T16:09:31.419Z,101489.19
2023-02-13T16:12:02.649Z,101491.00
2023-02-13T16:14:31.822Z,101499.06
2023-02-13T16:17:01.076Z,101493.66
2023-02-13T16:19:40.564Z,101497.28
2023-02-13T16:22:36.200Z,101504.41
2023-02-13T16:25:13.241Z,101495.69
2023-02-13T16:27:43.708Z,101491.69
2023-02-13T16:30:24.410Z,101502.31
2023-02-13T16:32:52.470Z,101502.88
2023-02-13T16:35:28.580Z,101499.19
2023-02-13T16:37:57.503Z,101495.22
2023-02-13T16:40:38.518Z,101496.94
2023-02-13T16:43:34.865Z,101501.97
2023-02-13T16:46:19.127Z,101508.34
2023-02-13T16:48:48.124Z,101510.31
2023-02-13T16:51:16.074Z,101508.88
2023-02-13T16:53:43.987Z,101504.84
2023-02-13T16:56:13.348Z,101514.03
2023-02-13T16:58:41.444Z,101500.44
2023-02-13T17:01:14.835Z,101503.53
2023-02-13T17:03:42.905Z,101498.69
2023-02-13T17:06:10.980Z,101495.56
2023-02-13T17:08:38.905Z,101503.97
2023-02-13T17:11:07.697Z,101506.13
2023-02-13T17:13:37.067Z,101512.75
2023-02-13T17:16:05.298Z,101516.50
2023-02-13T17:18:33.362Z,101513.13
2023-02-13T17:21:01.481Z,101511.69
2023-02-13T17:23:29.581Z,101510.34
2023-02-13T17:25:57.636Z,101510.75
2023-02-13T17:28:29.510Z,101513.81
2023-02-13T17:30:59.097Z,101502.75
2023-02-13T17:33:28.158Z,101502.31
2023-02-13T17:35:56.150Z,101493.84
2023-02-13T17:38:24.241Z,101494.50
2023-02-13T17:40:52.510Z,101496.22
2023-02-13T17:43:20.875Z,101507.03
2023-02-13T17:45:49.759Z,101500.00
2023-02-13T17:48:19.227Z,101496.72
2023-02-13T17:50:47.371Z,101501.44
2023-02-13T17:53:17.727Z,101491.84
2023-02-13T17:55:45.646Z,101491.16
2023-02-13T17:58:13.642Z,101488.50
2023-02-13T18:00:41.567Z,101483.22
2023-02-13T18:03:09.508Z,101484.03
2023-02-13T18:05:38.841Z,101479.59
2023-02-13T18:08:06.783Z,101478.94
2023-02-13T18:10:36.045Z,101488.59
2023-02-13T18:13:05.180Z,101488.66
2023-02-13T18:15:33.696Z,101486.09
2023-02-13T18:18:01.725Z,101490.53
2023-02-13T18:20:29.955Z,101484.38
2023-02-13T18:22:59.263Z,101479.22
2023-02-13T18:25:27.246Z,101478.38
2023-02-13T18:27:55.602Z,101465.47
2023-02-13T18:30:23.718Z,101475.13
2023-02-13T18:32:55.388Z,101476.84
2023-02-13T18:35:23.521Z,101468.72
2023-02-13T18:37:51.497Z,101467.03
2023-02-13T18:40:20.932Z,101472.25
2023-02-13T18:42:51.107Z,101471.19
2023-02-13T18:45:19.231Z,101466.69
2023-02-13T18:47:47.153Z,101467.63
2023-02-13T18:50:15.108Z,101462.66
2023-02-13T18:52:43.116Z,101457.00
2023-02-13T18:55:11.083Z,101455.00
2023-02-13T18:57:43.478Z,101456.84
2023-02-13T19:00:13.266Z,101457.72
2023-02-13T19:02:41.320Z,101457.00
2023-02-13T19:05:09.680Z,101459.06
2023-02-13T19:07:37.645Z,101460.31
2023-02-13T19:10:07.129Z,101454.25
2023-02-13T19:12:35.128Z,101454.41
2023-02-13T19:15:04.681Z,101451.84
2023-02-13T19:17:32.640Z,101415.00
2023-02-13T19:20:00.662Z,101440.56
2023-02-13T19:22:28.668Z,101445.59
2023-02-13T19:24:56.592Z,101448.97
2023-02-13T19:27:24.538Z,101441.59
2023-02-13T19:29:52.474Z,101442.22
2023-02-13T19:32:21.872Z,101442.81
2023-02-13T19:34:49.838Z,101431.22
2023-02-13T19:37:17.801Z,101436.38
2023-02-13T19:39:45.787Z,101432.28
2023-02-13T19:42:13.761Z,101432.09
2023-02-13T19:44:41.664Z,101431.75
2023-02-13T19:47:09.610Z,101433.38
2023-02-13T19:49:38.895Z,101438.59
2023-02-13T19:52:06.888Z,101434.81
2023-02-13T19:54:35.220Z,101423.19
2023-02-13T19:57:05.774Z,101430.03
2023-02-13T19:59:33.758Z,101431.91
2023-02-13T20:02:01.829Z,101438.41
2023-02-13T20:04:29.800Z,101432.91
2023-02-13T20:06:59.146Z,101430.88
2023-02-13T20:09:27.086Z,101428.22
2023-02-13T20:11:55.063Z,101425.56
2023-02-13T20:14:23.005Z,101423.34
2023-02-13T20:16:50.960Z,101422.28
2023-02-13T20:19:18.900Z,101423.34
2023-02-13T20:21:46.837Z,101420.41
2023-02-13T20:24:16.201Z,101411.50
2023-02-13T20:26:44.161Z,101419.31
2023-02-13T20:29:12.096Z,101413.78
2023-02-13T20:31:41.502Z,101409.44
2023-02-13T20:34:09.629Z,101406.03
2023-02-13T20:36:37.570Z,101393.88
2023-02-13T20:39:06.287Z,101388.72
2023-02-13T20:41:36.207Z,101387.38
2023-02-13T20:44:05.168Z,101386.03
2023-02-13T20:46:33.245Z,101374.22
2023-02-13T20:49:01.180Z,101377.41
2023-02-13T20:51:29.594Z,101377.16
2023-02-13T20:53:57.541Z,101369.63
2023-02-13T20:56:29.288Z,101371.00
2023-02-13T20:58:59.424Z,101373.38
2023-02-13T21:01:28.197Z,101374.06
2023-02-13T21:03:56.506Z,101376.13
2023-02-13T21:06:24.967Z,101380.06
2023-02-13T21:08:53.126Z,101373.19
2023-02-13T21:11:21.180Z,101378.91
2023-02-13T21:13:49.472Z,101369.47
2023-02-13T21:16:19.827Z,101364.59
2023-02-13T21:18:48.683Z,101372.25
2023-02-13T21:21:16.723Z,101367.81
2023-02-13T21:23:44.673Z,101357.88
2023-02-13T21:26:13.834Z,101360.13
2023-02-13T21:28:41.769Z,101352.97
2023-02-13T21:31:10.458Z,101348.66
2023-02-13T21:33:39.782Z,101339.94
2023-02-13T21:36:09.037Z,101331.22
2023-02-13T21:38:37.187Z,101337.72
2023-02-13T21:41:06.551Z,101335.13
2023-02-13T21:43:37.678Z,101328.97
2023-02-13T21:46:09.918Z,101330.19
2023-02-13T21:48:39.317Z,101324.88
2023-02-13T21:51:07.768Z,101324.31
2023-02-13T21:53:35.710Z,101305.78
2023-02-13T21:56:04.140Z,101311.19
2023-02-13T21:58:33.839Z,101296.69
2023-02-13T22:01:02.229Z,101304.47
2023-02-13T22:03:30.391Z,101308.50
2023-02-13T22:05:59.736Z,101309.38
2023-02-13T22:08:27.700Z,101310.94
2023-02-13T22:10:55.835Z,101310.44
2023-02-13T22:13:24.002Z,101302.91
2023-02-13T22:16:00.097Z,101307.88
2023-02-13T22:18:28.079Z,101318.91
2023-02-13T22:20:56.273Z,101312.34
2023-02-13T22:23:26.351Z,101314.81
2023-02-13T22:25:54.293Z,101310.13
2023-02-13T22:28:22.298Z,101304.81
2023-02-13T22:30:50.421Z,101300.88
2023-02-13T22:33:18.463Z,101300.88
2023-02-13T22:35:46.387Z,101299.00
2023-02-13T22:38:14.327Z,101309.59
2023-02-13T22:40:43.621Z,101308.53
2023-02-13T22:43:11.545Z,101308.38
2023-02-13T22:45:39.624Z,101321.56
2023-02-13T22:48:07.584Z,101323.09
2023-02-13T22:50:35.635Z,101331.22
2023-02-13T22:53:03.609Z,101326.84
2023-02-13T22:55:31.558Z,101340.91
2023-02-13T22:58:00.866Z,101339.03
2023-02-13T23:00:28.833Z,101335.69
2023-02-13T23:02:56.772Z,101339.34
2023-02-13T23:05:24.709Z,101334.22
2023-02-13T23:07:52.676Z,101329.09
2023-02-13T23:10:20.640Z,101334.84
2023-02-13T23:12:49.911Z,101331.75
2023-02-13T23:15:20.097Z,101335.94
2023-02-13T23:18:04.679Z,101343.69
2023-02-13T23:20:32.605Z,101353.13
2023-02-13T23:23:00.535Z,101352.88
2023-02-13T23:25:28.614Z,101351.72
2023-02-13T23:27:56.839Z,101347.06
2023-02-13T23:30:26.546Z,101344.97
2023-02-13T23:32:54.553Z,101355.34
2023-02-13T23:35:22.463Z,101359.47
2023-02-13T23:37:50.388Z,101369.59
2023-02-13T23:40:18.521Z,101356.72
2023-02-13T23:42:46.534Z,101357.03
2023-02-13T23:45:14.441Z,101356.63
2023-02-13T23:47:43.777Z,101360.38
2023-02-13T23:50:11.997Z,101360.81
2023-02-13T23:52:39.963Z,101359.13
2023-02-13T23:55:08.128Z,101354.75
2023-02-13T23:57:36.351Z,101359.19
